This is the latest recevied weather packets stored in our database for station/object WA1NHP. If no packets are shown the sender has not sent any weather packets the latest 1 day(s).
| Time | Temp. | Humidity | Pressure | Rain* | Wind** | Luminosity | Snow |
|---|---|---|---|---|---|---|---|
| 1778018044 | 23.89° C | 48% | 1023.9 hPa | 0 mm | 6.26 m/s, 200° | 105 W/m² | - |
| 1778017444 | 23.89° C | 48% | 1023.9 hPa | 0 mm | 4.02 m/s, 207° | 130 W/m² | - |
| 1778016844 | 24.44° C | 47% | 1023.9 hPa | 0 mm | 4.02 m/s, 197° | 104 W/m² | - |
| 1778016243 | 24.44° C | 47% | 1023.9 hPa | 0 mm | 3.13 m/s, 212° | 148 W/m² | - |
| 1778015643 | 25° C | 46% | 1023.9 hPa | 0 mm | 2.24 m/s, 209° | 250 W/m² | - |
| 1778015044 | 24.44° C | 46% | 1023.9 hPa | 0 mm | 4.02 m/s, 216° | 230 W/m² | - |
| 1778014444 | 24.44° C | 45% | 1023.9 hPa | 0 mm | 4.47 m/s, 207° | 160 W/m² | - |
| 1778013843 | 25° C | 45% | 1023.9 hPa | 0 mm | 4.02 m/s, 194° | 160 W/m² | - |
| 1778013244 | 25° C | 45% | 1023.9 hPa | 0 mm | 4.02 m/s, 198° | 418 W/m² | - |
| 1778012644 | 24.44° C | 43% | 1023.9 hPa | 0 mm | 4.92 m/s, 229° | 158 W/m² | - |
| 1778012044 | 25.56° C | 44% | 1023.9 hPa | 0 mm | 3.58 m/s, 219° | 258 W/m² | - |
| 1778011444 | 25° C | 44% | 1023.9 hPa | 0 mm | 2.68 m/s, 201° | 271 W/m² | - |
| 1778010844 | 25.56° C | 44% | 1023.9 hPa | 0 mm | 2.68 m/s, 205° | 169 W/m² | - |
| 1778010244 | 26.67° C | 41% | 1023.9 hPa | 0 mm | 0.45 m/s, 215° | 694 W/m² | - |
| 1778009644 | 26.11° C | 44% | 1023.9 hPa | 0 mm | 2.24 m/s, 206° | 255 W/m² | - |
| 1778009044 | 26.11° C | 42% | 1023.9 hPa | 0 mm | 2.24 m/s, 198° | 650 W/m² | - |
| 1778008444 | 26.67° C | 38% | 1023.9 hPa | 0 mm | 0.89 m/s, 185° | 682 W/m² | - |
| 1778007844 | 26.67° C | 39% | 1023.9 hPa | 0 mm | 1.34 m/s, 237° | 722 W/m² | - |
| 1778007244 | 27.22° C | 40% | 1023.9 hPa | 0 mm | 0 m/s | 636 W/m² | - |
| 1778006644 | 26.67° C | 38% | 1023.9 hPa | 0 mm | 1.34 m/s, 230° | 759 W/m² | - |
| 1778006043 | 26.67° C | 41% | 1023.9 hPa | 0 mm | 1.34 m/s, 212° | 888 W/m² | - |
| 1778005444 | 27.22° C | 41% | 1023.9 hPa | 0 mm | 0 m/s | 898 W/m² | - |
| 1778004844 | 26.67° C | 39% | 1023.9 hPa | 0 mm | 0 m/s | 867 W/m² | - |
| 1778004243 | 26.67° C | 41% | 1023.9 hPa | 0 mm | 0.89 m/s, 183° | 895 W/m² | - |
| 1778003644 | 26.67° C | 40% | 1023.9 hPa | 0 mm | 2.24 m/s, 200° | 919 W/m² | - |
* Rain latest hour (hover to see other rain measurements)
** Current wind speed in m/s (hover to see current wind gust speed)